createdAt,value
2018-04-11T00:01:13.371Z,9.70
2018-04-11T00:03:40.908Z,7.23
2018-04-11T00:06:08.376Z,8.00
2018-04-11T00:08:35.843Z,6.23
2018-04-11T00:11:03.303Z,6.10
2018-04-11T00:13:30.766Z,7.67
2018-04-11T00:15:58.235Z,7.03
2018-04-11T00:18:26.496Z,5.80
2018-04-11T00:20:54.026Z,5.80
2018-04-11T00:23:21.488Z,7.83
2018-04-11T00:25:48.946Z,9.87
2018-04-11T00:28:16.384Z,8.10
2018-04-11T00:30:43.882Z,10.27
2018-04-11T00:33:11.439Z,5.53
2018-04-11T00:35:39.387Z,6.90
2018-04-11T00:38:06.857Z,3.57
2018-04-11T00:40:35.077Z,6.83
2018-04-11T00:43:02.564Z,5.03
2018-04-11T00:45:30.027Z,4.07
2018-04-11T00:47:57.478Z,5.50
2018-04-11T00:50:24.932Z,4.40
2018-04-11T00:55:56.185Z,3.67
2018-04-11T00:58:23.631Z,3.07
2018-04-11T01:00:51.114Z,6.47
2018-04-11T01:03:18.563Z,4.33
2018-04-11T01:05:46.012Z,5.33
2018-04-11T01:08:13.480Z,5.90
2018-04-11T01:10:40.928Z,6.93
2018-04-11T01:13:08.392Z,5.63
2018-04-11T01:15:35.838Z,5.90
2018-04-11T01:18:03.316Z,4.03
2018-04-11T01:20:30.785Z,3.90
2018-04-11T01:22:58.324Z,3.97
2018-04-11T01:25:25.789Z,4.67
2018-04-11T01:27:53.264Z,5.23
2018-04-11T01:30:20.733Z,4.37
2018-04-11T01:32:48.943Z,5.00
2018-04-11T01:35:16.400Z,5.60
2018-04-11T01:37:43.899Z,7.63
2018-04-11T01:40:11.440Z,4.83
2018-04-11T01:42:38.916Z,7.97
2018-04-11T01:45:06.480Z,4.83
2018-04-11T01:47:33.920Z,5.90
2018-04-11T01:50:01.392Z,7.10
2018-04-11T01:52:28.840Z,5.67
2018-04-11T01:54:56.288Z,9.43
2018-04-11T01:57:23.763Z,6.53
2018-04-11T01:59:51.303Z,7.73
2018-04-11T02:02:18.783Z,12.43
2018-04-11T02:04:46.226Z,7.57
2018-04-11T02:07:13.699Z,9.93
2018-04-11T02:09:41.300Z,8.83
2018-04-11T02:12:09.502Z,8.13
2018-04-11T02:14:36.972Z,7.50
2018-04-11T02:17:04.411Z,8.47
2018-04-11T02:19:31.881Z,9.37
2018-04-11T02:21:59.335Z,6.90
2018-04-11T02:24:26.800Z,8.63
2018-04-11T02:26:54.265Z,7.87
2018-04-11T02:29:21.813Z,8.40
2018-04-11T02:31:49.291Z,8.40
2018-04-11T02:34:16.757Z,11.27
2018-04-11T02:36:44.977Z,11.27
2018-04-11T02:39:12.454Z,10.57
2018-04-11T02:41:39.905Z,10.00
2018-04-11T02:44:07.378Z,8.07
2018-04-11T02:46:35.615Z,7.87
2018-04-11T02:49:03.083Z,8.33
2018-04-11T02:51:30.560Z,11.37
2018-04-11T02:53:58.031Z,9.70
2018-04-11T02:56:25.637Z,11.20
2018-04-11T02:58:53.099Z,9.03
2018-04-11T03:01:20.553Z,10.20
2018-04-11T03:03:48.061Z,10.37
2018-04-11T03:06:15.627Z,9.80
2018-04-11T03:08:43.068Z,9.97
2018-04-11T03:11:10.545Z,9.97
2018-04-11T03:13:38.830Z,11.53
2018-04-11T03:16:07.095Z,10.33
2018-04-11T03:18:34.653Z,10.33
2018-04-11T03:21:02.317Z,13.97
2018-04-11T03:23:30.534Z,11.67
2018-04-11T03:25:58.038Z,14.33
2018-04-11T03:28:25.511Z,12.03
2018-04-11T03:30:53.746Z,12.50
2018-04-11T03:33:21.197Z,12.80
2018-04-11T03:35:48.702Z,13.93
2018-04-11T03:38:16.928Z,14.40
2018-04-11T03:40:44.374Z,12.93
2018-04-11T03:43:11.839Z,13.20
2018-04-11T03:45:39.331Z,14.73
2018-04-11T03:48:06.941Z,14.80
2018-04-11T03:50:34.421Z,16.63
2018-04-11T03:53:01.888Z,15.33
2018-04-11T03:55:29.336Z,16.23
2018-04-11T03:57:56.867Z,15.13
2018-04-11T04:00:24.362Z,17.37
2018-04-11T04:02:51.815Z,19.30
2018-04-11T04:05:19.377Z,16.37
2018-04-11T04:07:47.013Z,17.67
2018-04-11T04:10:15.208Z,16.40
2018-04-11T04:12:42.788Z,19.70
2018-04-11T04:15:23.562Z,19.73
2018-04-11T04:18:02.977Z,18.87
2018-04-11T04:20:36.476Z,20.83
2018-04-11T04:23:03.954Z,18.03
2018-04-11T04:25:31.435Z,17.73
2018-04-11T04:27:58.883Z,17.23
2018-04-11T04:30:27.088Z,20.17
2018-04-11T04:32:54.540Z,18.80
2018-04-11T04:35:22.028Z,17.10
2018-04-11T04:37:49.499Z,22.37
2018-04-11T04:40:17.063Z,20.07
2018-04-11T04:42:44.531Z,23.53
2018-04-11T04:45:12.772Z,18.97
2018-04-11T04:47:40.236Z,21.60
2018-04-11T04:50:07.792Z,21.10
2018-04-11T04:52:35.239Z,18.13
2018-04-11T04:55:02.809Z,19.80
2018-04-11T04:57:30.383Z,17.63
2018-04-11T04:59:57.918Z,20.47
2018-04-11T05:02:25.362Z,21.07
2018-04-11T05:04:52.858Z,22.17
2018-04-11T05:07:20.332Z,27.30
2018-04-11T05:09:48.584Z,26.23
2018-04-11T05:12:16.037Z,23.57
2018-04-11T05:14:43.495Z,25.23
2018-04-11T05:17:10.961Z,23.10
2018-04-11T05:19:38.435Z,40.73
2018-04-11T05:22:06.685Z,28.50
2018-04-11T05:24:35.017Z,27.70
2018-04-11T05:27:02.487Z,25.40
2018-04-11T05:29:29.958Z,27.00
2018-04-11T05:31:57.412Z,26.37
2018-04-11T05:34:24.955Z,26.00
2018-04-11T05:36:52.403Z,22.50
2018-04-11T05:39:19.879Z,21.93
2018-04-11T05:41:47.358Z,24.83
2018-04-11T05:44:14.817Z,24.80
2018-04-11T05:46:42.276Z,23.90
2018-04-11T05:49:09.825Z,23.83
2018-04-11T05:51:37.276Z,21.97
2018-04-11T05:54:04.756Z,21.33
2018-04-11T05:56:32.201Z,20.37
2018-04-11T05:58:59.664Z,22.07
2018-04-11T06:01:27.147Z,22.60
2018-04-11T06:03:55.374Z,22.63
2018-04-11T06:06:22.857Z,20.80
2018-04-11T06:08:50.309Z,17.73
2018-04-11T06:11:17.759Z,17.10
2018-04-11T06:13:45.332Z,17.47
2018-04-11T06:16:12.814Z,17.27
2018-04-11T06:18:41.037Z,17.30
2018-04-11T06:21:08.529Z,16.47
2018-04-11T06:23:36.751Z,20.83
2018-04-11T06:26:04.213Z,15.80
2018-04-11T06:28:31.679Z,17.10
2018-04-11T06:30:59.120Z,18.10
2018-04-11T06:33:26.605Z,18.50
2018-04-11T06:35:54.083Z,19.63
2018-04-11T06:38:22.308Z,19.80
2018-04-11T06:40:49.763Z,15.37
2018-04-11T06:43:17.242Z,18.17
2018-04-11T06:45:44.807Z,17.07
2018-04-11T06:48:12.404Z,17.30
2018-04-11T06:50:41.264Z,17.23
2018-04-11T06:53:08.727Z,15.80
2018-04-11T06:55:36.254Z,17.07
2018-04-11T06:58:03.739Z,17.00
2018-04-11T07:00:31.282Z,16.23
2018-04-11T07:02:58.767Z,14.87
2018-04-11T07:05:26.221Z,13.30
2018-04-11T07:07:53.663Z,16.10
2018-04-11T07:10:21.240Z,19.83
2018-04-11T07:12:48.701Z,19.10
2018-04-11T07:15:16.923Z,22.37
2018-04-11T07:17:44.470Z,18.40
2018-04-11T07:20:11.916Z,22.10
2018-04-11T07:22:39.410Z,16.67
2018-04-11T07:25:06.946Z,18.60
2018-04-11T07:27:34.504Z,20.33
2018-04-11T07:30:01.986Z,15.90
2018-04-11T07:32:29.451Z,18.00
2018-04-11T07:34:57.382Z,15.77
2018-04-11T07:37:24.833Z,12.50
2018-04-11T07:39:52.326Z,16.70
2018-04-11T07:42:19.797Z,13.07
2018-04-11T07:44:47.248Z,15.07
2018-04-11T07:47:14.723Z,13.17
2018-04-11T07:49:42.219Z,12.37
2018-04-11T07:52:09.682Z,14.10
2018-04-11T07:54:37.175Z,15.40
2018-04-11T07:57:04.597Z,16.97
2018-04-11T07:59:32.072Z,15.43
2018-04-11T08:01:59.521Z,14.90
2018-04-11T08:04:26.980Z,16.27
2018-04-11T08:06:54.450Z,14.63
2018-04-11T08:09:21.936Z,16.27
2018-04-11T08:11:50.159Z,15.37
2018-04-11T08:14:17.642Z,16.73
2018-04-11T08:16:45.113Z,18.30
2018-04-11T08:19:12.593Z,16.33
2018-04-11T08:21:40.150Z,18.63
2018-04-11T08:24:07.870Z,17.93
2018-04-11T08:26:35.787Z,15.30
2018-04-11T08:29:03.999Z,16.70
2018-04-11T08:31:31.656Z,15.13
2018-04-11T08:33:59.143Z,15.23
2018-04-11T08:36:26.603Z,16.23
2018-04-11T08:38:54.075Z,16.30
2018-04-11T08:41:21.681Z,13.87
2018-04-11T08:43:49.147Z,15.70
2018-04-11T08:46:16.619Z,14.13
2018-04-11T08:48:44.087Z,14.10
2018-04-11T08:51:11.559Z,13.07
2018-04-11T08:53:39.015Z,14.00
2018-04-11T08:56:07.257Z,12.70
2018-04-11T08:58:34.752Z,14.93
2018-04-11T09:01:02.293Z,12.53
2018-04-11T09:03:29.719Z,7.67
2018-04-11T09:05:57.172Z,7.73
2018-04-11T09:08:24.626Z,7.10
2018-04-11T09:10:52.091Z,9.03
2018-04-11T09:13:19.555Z,7.63
2018-04-11T09:15:47.019Z,7.87
2018-04-11T09:18:14.493Z,7.53
2018-04-11T09:20:41.957Z,6.53
2018-04-11T09:23:09.424Z,7.37
2018-04-11T09:25:36.894Z,8.90
2018-04-11T09:28:05.125Z,7.10
2018-04-11T09:30:32.583Z,6.03
2018-04-11T09:33:00.141Z,8.17
2018-04-11T09:35:28.352Z,5.83
2018-04-11T09:37:55.811Z,6.10
2018-04-11T09:40:24.050Z,5.47
2018-04-11T09:42:51.578Z,7.50
2018-04-11T09:45:19.042Z,7.20
2018-04-11T09:47:46.484Z,5.30
2018-04-11T09:50:13.962Z,5.97
2018-04-11T09:52:41.512Z,7.33
2018-04-11T09:55:08.948Z,5.73
2018-04-11T09:57:36.384Z,8.87
2018-04-11T10:00:04.611Z,10.27
2018-04-11T10:02:37.119Z,5.60
2018-04-11T10:05:04.682Z,6.87
2018-04-11T10:07:32.235Z,7.20
2018-04-11T10:09:59.776Z,7.30
2018-04-11T10:12:27.251Z,6.43
2018-04-11T10:14:54.706Z,5.07
2018-04-11T10:17:22.243Z,8.63
2018-04-11T10:19:49.825Z,6.50
2018-04-11T10:22:17.292Z,10.27
2018-04-11T10:24:44.757Z,13.13
2018-04-11T10:27:12.996Z,13.13
2018-04-11T10:29:40.480Z,15.83
2018-04-11T10:32:07.961Z,18.17
2018-04-11T10:34:36.219Z,15.87
2018-04-11T10:37:04.465Z,12.70
2018-04-11T10:39:31.919Z,11.87
2018-04-11T10:41:59.361Z,11.93
2018-04-11T10:44:26.843Z,10.87
2018-04-11T10:46:54.415Z,9.37
2018-04-11T10:49:22.622Z,10.37
2018-04-11T10:51:50.941Z,11.17
2018-04-11T10:54:18.402Z,13.83
2018-04-11T10:56:45.928Z,11.10
2018-04-11T10:59:13.373Z,7.70
2018-04-11T11:01:40.839Z,10.40
2018-04-11T11:04:08.311Z,10.33
2018-04-11T11:06:35.755Z,7.27
2018-04-11T11:09:03.267Z,8.50
2018-04-11T11:11:31.193Z,6.13
2018-04-11T11:13:58.745Z,5.23
2018-04-11T11:16:36.931Z,5.33
2018-04-11T11:19:04.378Z,7.00
2018-04-11T11:21:32.708Z,5.33
2018-04-11T11:24:00.289Z,6.07
2018-04-11T11:26:27.730Z,10.97
2018-04-11T11:28:55.204Z,11.07
2018-04-11T11:31:22.739Z,13.07
2018-04-11T11:33:50.303Z,11.40
2018-04-11T11:36:17.781Z,18.33
2018-04-11T11:38:45.275Z,12.37
2018-04-11T11:41:12.703Z,18.23
2018-04-11T11:43:40.957Z,13.17
2018-04-11T11:46:09.249Z,15.90
2018-04-11T11:48:36.701Z,16.17
2018-04-11T11:51:04.188Z,15.70
2018-04-11T11:53:31.682Z,13.67
2018-04-11T11:55:59.222Z,15.03
2018-04-11T11:58:26.727Z,14.50
2018-04-11T12:00:54.175Z,16.87
2018-04-11T12:03:21.653Z,15.60
2018-04-11T12:05:49.186Z,16.03
2018-04-11T12:08:16.774Z,18.90
2018-04-11T12:10:44.310Z,18.43
2018-04-11T12:13:11.888Z,19.00
2018-04-11T12:15:40.151Z,16.83
2018-04-11T12:18:07.726Z,17.83
2018-04-11T12:20:35.966Z,19.73
2018-04-11T12:23:03.427Z,20.00
2018-04-11T12:25:30.964Z,19.40
2018-04-11T12:27:58.514Z,19.80
2018-04-11T12:30:25.970Z,18.23
2018-04-11T12:32:53.424Z,22.07
2018-04-11T12:35:20.938Z,22.63
2018-04-11T12:37:48.402Z,22.70
2018-04-11T12:40:16.650Z,20.63
2018-04-11T12:42:44.221Z,22.60
2018-04-11T12:45:11.837Z,25.30
2018-04-11T12:47:39.291Z,23.10
2018-04-11T12:50:06.800Z,25.63
2018-04-11T12:52:34.252Z,24.07
2018-04-11T12:55:02.566Z,24.40
2018-04-11T12:57:30.566Z,24.73
2018-04-11T12:59:58.032Z,26.27
2018-04-11T13:02:25.526Z,23.43
2018-04-11T13:04:53.808Z,22.10
2018-04-11T13:07:22.090Z,22.93
2018-04-11T13:09:50.395Z,23.90
2018-04-11T13:12:17.874Z,24.00
2018-04-11T13:14:45.348Z,23.97
2018-04-11T13:17:12.853Z,23.93
2018-04-11T13:19:41.083Z,25.73
2018-04-11T13:22:08.654Z,25.73
2018-04-11T13:24:36.214Z,25.00
2018-04-11T13:27:03.764Z,24.57
2018-04-11T13:29:31.215Z,23.67
2018-04-11T13:31:58.728Z,25.43
2018-04-11T13:34:26.278Z,24.67
2018-04-11T13:36:53.784Z,26.73
2018-04-11T13:39:21.238Z,25.77
2018-04-11T13:41:49.522Z,26.77
2018-04-11T13:44:17.013Z,29.43
2018-04-11T13:46:45.225Z,22.90
2018-04-11T13:49:12.689Z,24.37
2018-04-11T13:51:40.190Z,21.83
2018-04-11T13:54:07.660Z,24.07
2018-04-11T13:56:35.924Z,24.27
2018-04-11T13:59:04.171Z,23.97
2018-04-11T14:01:31.769Z,27.00
2018-04-11T14:03:59.980Z,24.67
2018-04-11T14:06:27.498Z,23.20
2018-04-11T14:08:55.714Z,22.27
2018-04-11T14:11:23.208Z,24.13
2018-04-11T14:13:50.690Z,22.23
2018-04-11T14:16:18.904Z,26.10
2018-04-11T14:18:46.383Z,26.20
2018-04-11T14:21:13.831Z,25.33
2018-04-11T14:23:41.304Z,24.53
2018-04-11T14:26:09.704Z,21.80
2018-04-11T14:28:37.153Z,23.67
2018-04-11T14:31:04.639Z,23.67
2018-04-11T14:33:32.173Z,22.43
2018-04-11T14:35:59.630Z,22.20
2018-04-11T14:38:27.102Z,21.40
2018-04-11T14:40:55.401Z,17.40
2018-04-11T14:43:22.925Z,18.00
2018-04-11T14:45:50.389Z,19.27
2018-04-11T14:48:18.664Z,18.57
2018-04-11T14:50:46.162Z,20.30
2018-04-11T14:53:13.650Z,18.40
2018-04-11T14:55:41.102Z,18.77
2018-04-11T14:58:08.579Z,17.93
2018-04-11T15:00:36.051Z,19.07
2018-04-11T15:03:04.288Z,17.13
2018-04-11T15:05:31.743Z,18.10
2018-04-11T15:07:59.251Z,19.03
2018-04-11T15:10:26.706Z,15.93
2018-04-11T15:12:54.947Z,16.67
2018-04-11T15:15:22.432Z,14.83
2018-04-11T15:17:49.940Z,14.97
2018-04-11T15:20:17.462Z,13.87
2018-04-11T15:22:44.952Z,13.87
2018-04-11T15:25:12.460Z,16.30
2018-04-11T15:27:40.742Z,10.80
2018-04-11T15:30:08.203Z,12.03
2018-04-11T15:32:35.718Z,12.13
2018-04-11T15:35:03.206Z,14.20
2018-04-11T15:37:31.424Z,12.63
2018-04-11T15:39:58.945Z,14.57
2018-04-11T15:42:27.234Z,14.90
2018-04-11T15:44:54.776Z,17.43
2018-04-11T15:47:22.346Z,15.53
2018-04-11T15:49:49.843Z,13.97
2018-04-11T15:52:17.340Z,9.77
2018-04-11T15:54:45.652Z,11.03
2018-04-11T15:57:13.190Z,12.93
2018-04-11T15:59:40.695Z,10.27
2018-04-11T16:02:08.183Z,11.03
2018-04-11T16:04:35.743Z,9.90
2018-04-11T16:07:03.251Z,10.03
2018-04-11T16:09:30.838Z,12.33
2018-04-11T16:11:58.504Z,12.33
2018-04-11T16:14:26.063Z,10.53
2018-04-11T16:16:53.606Z,12.10
2018-04-11T16:19:21.119Z,10.10
2018-04-11T16:21:48.629Z,9.83
2018-04-11T16:24:16.239Z,10.70
2018-04-11T16:26:43.731Z,10.67
2018-04-11T16:29:11.372Z,9.77
2018-04-11T16:31:38.977Z,11.37
2018-04-11T16:34:06.489Z,11.57
2018-04-11T16:36:33.984Z,8.43
2018-04-11T16:39:01.492Z,9.47
2018-04-11T16:41:28.971Z,10.23
2018-04-11T16:43:56.459Z,9.50
2018-04-11T16:46:23.964Z,11.10
2018-04-11T16:48:51.447Z,9.03
2018-04-11T16:51:18.922Z,10.27
2018-04-11T16:53:46.368Z,10.43
2018-04-11T16:56:13.893Z,10.13
2018-04-11T16:58:41.389Z,9.87
2018-04-11T17:01:08.868Z,10.17
2018-04-11T17:03:36.358Z,10.23
2018-04-11T17:06:03.780Z,9.27
2018-04-11T17:08:31.337Z,9.20
2018-04-11T17:10:58.912Z,9.67
2018-04-11T17:13:26.474Z,8.03
2018-04-11T17:15:53.943Z,7.10
2018-04-11T17:18:22.226Z,6.03
2018-04-11T17:21:02.422Z,5.63
2018-04-11T17:23:41.905Z,6.80
2018-04-11T17:26:21.372Z,5.00
2018-04-11T17:29:00.931Z,5.63
2018-04-11T17:31:32.305Z,4.63
2018-04-11T17:33:59.764Z,6.23
2018-04-11T17:36:27.346Z,4.70
2018-04-11T17:38:54.807Z,7.57
2018-04-11T17:41:22.252Z,7.73
2018-04-11T17:43:49.723Z,4.53
2018-04-11T17:46:17.163Z,3.73
2018-04-11T17:48:44.612Z,4.47
2018-04-11T17:51:12.110Z,3.37
2018-04-11T17:53:39.583Z,3.70
2018-04-11T17:56:07.089Z,4.97
2018-04-11T17:58:34.530Z,5.20
2018-04-11T18:01:02.029Z,3.50
2018-04-11T18:03:29.465Z,4.47
2018-04-11T18:05:56.929Z,4.20
2018-04-11T18:08:24.422Z,6.57
2018-04-11T18:10:51.925Z,6.40
2018-04-11T18:13:19.393Z,5.73
2018-04-11T18:15:46.928Z,5.20
2018-04-11T18:18:14.382Z,5.70
2018-04-11T18:20:41.898Z,5.17
2018-04-11T18:23:10.127Z,4.27
2018-04-11T18:25:37.600Z,4.20
2018-04-11T18:28:05.158Z,4.03
2018-04-11T18:30:32.730Z,4.50
2018-04-11T18:33:00.977Z,6.70
2018-04-11T18:35:28.477Z,5.53
2018-04-11T18:37:56.715Z,5.50
2018-04-11T18:40:24.260Z,5.07
2018-04-11T18:42:51.727Z,5.93
2018-04-11T18:45:19.174Z,6.37
2018-04-11T18:47:46.685Z,4.77
2018-04-11T18:50:14.897Z,4.83
2018-04-11T18:52:42.350Z,6.10
2018-04-11T18:55:09.837Z,4.17
2018-04-11T18:57:37.305Z,5.13
2018-04-11T19:00:04.746Z,6.00
2018-04-11T19:02:32.247Z,4.37
2018-04-11T19:04:59.797Z,5.07
2018-04-11T19:07:28.119Z,5.83
2018-04-11T19:09:55.617Z,5.63
2018-04-11T19:12:23.911Z,8.00
2018-04-11T19:14:52.181Z,6.47
2018-04-11T19:17:20.460Z,6.60
2018-04-11T19:19:48.737Z,5.87
2018-04-11T19:22:17.004Z,6.77
2018-04-11T19:24:45.260Z,6.43
2018-04-11T19:27:12.842Z,9.83
2018-04-11T19:29:41.149Z,10.77
2018-04-11T19:32:08.746Z,11.13
2018-04-11T19:34:37.141Z,10.17
2018-04-11T19:37:05.408Z,7.80
2018-04-11T19:39:32.887Z,7.53
2018-04-11T19:42:01.150Z,7.40
2018-04-11T19:44:28.649Z,9.27
2018-04-11T19:46:56.860Z,7.13
2018-04-11T19:49:24.581Z,7.00
2018-04-11T19:51:52.049Z,9.23
2018-04-11T19:54:19.535Z,15.10
2018-04-11T19:56:50.816Z,16.57
2018-04-11T19:59:19.094Z,12.80
2018-04-11T20:01:46.643Z,12.97
2018-04-11T20:04:14.895Z,10.33
2018-04-11T20:06:42.352Z,9.37
2018-04-11T20:09:10.679Z,8.43
2018-04-11T20:11:38.149Z,8.60
2018-04-11T20:14:05.615Z,10.23
2018-04-11T20:16:33.061Z,10.07
2018-04-11T20:19:00.517Z,9.57
2018-04-11T20:21:27.996Z,9.47
2018-04-11T20:23:55.451Z,20.13
2018-04-11T20:26:22.891Z,18.20
2018-04-11T20:28:50.366Z,11.53
2018-04-11T20:31:17.908Z,15.80
2018-04-11T20:33:45.363Z,13.60
2018-04-11T20:36:12.820Z,11.07
2018-04-11T20:38:40.267Z,12.83
2018-04-11T20:41:07.771Z,13.10
2018-04-11T20:43:35.241Z,11.53
2018-04-11T20:46:02.713Z,9.57
2018-04-11T20:48:30.171Z,11.43
2018-04-11T20:50:58.424Z,11.00
2018-04-11T20:53:25.977Z,11.43
2018-04-11T20:55:53.460Z,13.47
2018-04-11T20:58:21.703Z,10.33
2018-04-11T21:00:49.192Z,11.07
2018-04-11T21:03:16.710Z,9.97
2018-04-11T21:05:44.191Z,10.07
2018-04-11T21:08:11.758Z,13.80
2018-04-11T21:10:39.297Z,16.00
2018-04-11T21:13:06.740Z,12.30
2018-04-11T21:15:34.227Z,9.50
2018-04-11T21:18:02.048Z,9.97
2018-04-11T21:20:29.497Z,10.97
2018-04-11T21:22:56.961Z,11.67
2018-04-11T21:25:24.427Z,13.20
2018-04-11T21:27:51.971Z,11.40
2018-04-11T21:30:19.428Z,12.40
2018-04-11T21:32:46.928Z,10.57
2018-04-11T21:35:14.416Z,10.27
2018-04-11T21:37:42.821Z,9.23
2018-04-11T21:40:10.337Z,10.80
2018-04-11T21:42:37.783Z,9.37
2018-04-11T21:45:06.028Z,10.43
2018-04-11T21:47:33.465Z,9.50
2018-04-11T21:50:00.975Z,11.93
2018-04-11T21:52:28.534Z,12.27
2018-04-11T21:54:55.997Z,9.93
2018-04-11T21:57:23.556Z,9.30
2018-04-11T21:59:51.014Z,9.37
2018-04-11T22:02:18.468Z,11.37
2018-04-11T22:04:46.033Z,13.67
2018-04-11T22:07:13.515Z,19.53
2018-04-11T22:09:41.090Z,14.37
2018-04-11T22:12:08.580Z,12.43
2018-04-11T22:14:36.140Z,15.47
2018-04-11T22:17:03.579Z,10.43
2018-04-11T22:19:31.056Z,11.93
2018-04-11T22:21:58.523Z,12.77
2018-04-11T22:24:27.501Z,10.17
2018-04-11T22:26:54.947Z,12.33
2018-04-11T22:29:22.419Z,10.73
2018-04-11T22:31:49.872Z,14.17
2018-04-11T22:34:17.334Z,10.37
2018-04-11T22:36:44.807Z,13.23
2018-04-11T22:39:12.278Z,18.33
2018-04-11T22:41:40.501Z,13.77
2018-04-11T22:44:07.939Z,13.23
2018-04-11T22:46:35.407Z,13.27
2018-04-11T22:49:02.887Z,14.67
2018-04-11T22:51:30.444Z,14.67
2018-04-11T22:53:57.900Z,11.47
2018-04-11T22:56:25.392Z,10.13
2018-04-11T22:58:53.611Z,9.67
2018-04-11T23:01:21.060Z,14.30
2018-04-11T23:03:48.540Z,11.97
2018-04-11T23:06:16.000Z,12.83
2018-04-11T23:08:43.556Z,12.53
2018-04-11T23:11:11.348Z,11.60
2018-04-11T23:13:38.820Z,16.00
2018-04-11T23:16:07.056Z,14.37
2018-04-11T23:18:34.844Z,13.67
2018-04-11T23:21:02.285Z,12.60
2018-04-11T23:23:29.737Z,12.10
2018-04-11T23:25:57.184Z,14.27
2018-04-11T23:28:24.676Z,15.63
2018-04-11T23:30:52.141Z,13.73
2018-04-11T23:33:20.371Z,14.37
2018-04-11T23:35:47.828Z,11.07
2018-04-11T23:38:15.292Z,12.97
2018-04-11T23:40:42.740Z,12.93
2018-04-11T23:43:10.222Z,10.73
2018-04-11T23:45:37.762Z,12.67
2018-04-11T23:48:05.256Z,12.87
2018-04-11T23:50:33.477Z,17.70
2018-04-11T23:53:00.946Z,12.47
2018-04-11T23:55:28.411Z,9.87
2018-04-11T23:57:55.883Z,14.63
